Time;durP1;ratioP1;P1;durP2;ratioP2;P2;SDS_P1;SDS_P2;PMS_P1;PMS_P2;Temp;Humidity;BMP_temperature;BMP_pressure;BME280_temperature;BME280_humidity;BME280_pressure;Samples;Min_cycle;Max_cycle;Signal;HPM_P1;HPM_P2
2022/09/23 00:01:18;;;;;;;2.57;2.37;;;;;;;;;;6338458;27;20011;-76
2022/09/23 00:04:19;;;;;;;4.23;3.93;;;;;;;;;;6361406;27;20011;-76
2022/09/23 00:07:20;;;;;;;2.70;2.27;;;;;;;;;;6350289;27;20080;-77
2022/09/23 00:10:21;;;;;;;3.40;3.20;;;;;;;;;;6356538;27;20047;-77
2022/09/23 00:13:22;;;;;;;1.20;1.20;;;;;;;;;;6354398;27;20018;-77
2022/09/23 00:16:24;;;;;;;3.15;2.63;;;;;;;;;;6352512;27;20069;-77
2022/09/23 00:19:24;;;;;;;4.47;1.85;;;;;;;;;;6354919;27;20016;-77
2022/09/23 00:22:24;;;;;;;1.70;1.60;;;;;;;;;;6348552;27;20370;-77
2022/09/23 00:25:26;;;;;;;3.07;2.80;;;;;;;;;;6341988;27;20361;-77
2022/09/23 00:28:26;;;;;;;2.60;1.45;;;;;;;;;;6366401;27;20410;-77
2022/09/23 00:31:26;;;;;;;2.67;2.53;;;;;;;;;;6358655;27;20031;-77
2022/09/23 00:34:26;;;;;;;2.92;2.72;;;;;;;;;;6332856;27;20016;-77
2022/09/23 00:37:27;;;;;;;2.15;2.05;;;;;;;;;;6364743;27;20090;-77
2022/09/23 00:40:27;;;;;;;1.17;1.17;;;;;;;;;;6360921;27;20023;-77
2022/09/23 00:44:00;;;;;;;4.45;4.18;;;;;;;;;;6332399;27;20019;-77
2022/09/23 00:47:00;;;;;;;1.02;1.02;;;;;;;;;;6306801;27;20023;-77
2022/09/23 00:50:07;;;;;;;0.93;0.93;;;;;;;;;;6356441;27;20506;-77
2022/09/23 00:53:10;;;;;;;3.25;2.95;;;;;;;;;;6352913;27;20336;-76
2022/09/23 00:56:11;;;;;;;3.08;2.72;;;;;;;;;;6363249;27;20007;-77
2022/09/23 00:59:12;;;;;;;3.67;3.42;;;;;;;;;;6343182;27;20016;-77
2022/09/23 01:02:13;;;;;;;3.05;2.88;;;;;;;;;;6331865;27;20015;-77
2022/09/23 01:05:13;;;;;;;0.60;0.60;;;;;;;;;;6361603;27;20488;-77
2022/09/23 01:08:14;;;;;;;2.37;2.17;;;;;;;;;;6339807;27;20034;-76
2022/09/23 01:11:20;;;;;;;1.20;1.17;;;;;;;;;;6355810;27;20073;-76
2022/09/23 01:14:20;;;;;;;9.60;5.07;;;;;;;;;;6336985;27;20040;-77
2022/09/23 01:17:30;;;;;;;6.35;5.72;;;;;;;;;;6364298;27;20041;-77
2022/09/23 01:20:50;;;;;;;2.58;2.47;;;;;;;;;;6346649;27;20483;-77
2022/09/23 01:23:51;;;;;;;3.92;3.60;;;;;;;;;;6331429;28;20161;-76
2022/09/23 01:26:57;;;;;;;10.00;3.83;;;;;;;;;;6332886;28;20454;-76
2022/09/23 01:30:15;;;;;;;1.33;1.30;;;;;;;;;;6345478;28;20068;-77
2022/09/23 01:33:38;;;;;;;1.98;1.85;;;;;;;;;;6353113;27;20015;-77
2022/09/23 01:36:41;;;;;;;1.13;1.13;;;;;;;;;;6336648;27;20018;-76
2022/09/23 01:39:52;;;;;;;3.00;2.85;;;;;;;;;;6331121;27;20015;-76
2022/09/23 01:42:57;;;;;;;0.98;0.98;;;;;;;;;;6361346;27;20072;-76
2022/09/23 01:45:58;;;;;;;1.02;1.02;;;;;;;;;;6353650;27;20041;-76
2022/09/23 01:49:14;;;;;;;3.03;2.83;;;;;;;;;;6339959;28;20075;-77
2022/09/23 01:52:18;;;;;;;10.25;4.10;;;;;;;;;;6331922;28;20372;-76
2022/09/23 01:55:25;;;;;;;1.48;1.38;;;;;;;;;;6335298;28;20578;-76
2022/09/23 01:58:29;;;;;;;3.58;3.28;;;;;;;;;;6347358;28;20024;-76
2022/09/23 02:01:36;;;;;;;2.50;2.40;;;;;;;;;;6354958;28;20098;-76
2022/09/23 02:04:39;;;;;;;2.22;2.13;;;;;;;;;;6347075;28;20120;-76
2022/09/23 02:07:42;;;;;;;1.92;1.80;;;;;;;;;;6347462;28;20019;-76
2022/09/23 02:10:48;;;;;;;2.13;1.90;;;;;;;;;;6340918;27;20133;-76
2022/09/23 02:13:53;;;;;;;1.90;1.75;;;;;;;;;;6367269;27;20507;-76
2022/09/23 02:16:55;;;;;;;1.90;1.80;;;;;;;;;;6350760;27;20015;-76
2022/09/23 02:20:00;;;;;;;2.55;2.35;;;;;;;;;;6367599;27;20015;-76
2022/09/23 02:23:02;;;;;;;1.35;1.30;;;;;;;;;;6361738;27;20524;-76
2022/09/23 02:26:21;;;;;;;2.40;2.28;;;;;;;;;;6345786;27;20011;-76
2022/09/23 02:29:22;;;;;;;2.17;2.00;;;;;;;;;;6347914;27;20020;-76
2022/09/23 02:32:32;;;;;;;1.27;1.27;;;;;;;;;;6369337;27;20027;-75
2022/09/23 02:35:40;;;;;;;2.63;2.42;;;;;;;;;;6360240;27;20454;-75
2022/09/23 02:38:44;;;;;;;5.70;5.18;;;;;;;;;;6372451;27;20402;-76
2022/09/23 02:41:50;;;;;;;0.40;0.40;;;;;;;;;;6350277;27;20040;-76
2022/09/23 02:44:50;;;;;;;2.65;2.55;;;;;;;;;;6354971;27;20418;-76
2022/09/23 02:47:53;;;;;;;2.03;1.88;;;;;;;;;;6341384;27;20026;-76
2022/09/23 02:50:54;;;;;;;5.20;3.50;;;;;;;;;;6340166;27;20124;-77
2022/09/23 02:53:55;;;;;;;2.20;2.10;;;;;;;;;;6341142;27;20011;-77
2022/09/23 02:56:56;;;;;;;2.90;2.67;;;;;;;;;;6354471;27;20421;-78
2022/09/23 02:59:57;;;;;;;2.67;2.50;;;;;;;;;;6338805;27;20023;-76
2022/09/23 03:03:05;;;;;;;0.37;0.37;;;;;;;;;;6366020;27;20092;-76
2022/09/23 03:06:20;;;;;;;13.30;6.95;;;;;;;;;;6344749;27;20133;-76
2022/09/23 03:09:26;;;;;;;2.35;2.10;;;;;;;;;;6338777;27;20098;-77
2022/09/23 03:12:42;;;;;;;3.67;3.45;;;;;;;;;;6354137;27;20045;-77
2022/09/23 03:15:42;;;;;;;1.05;1.05;;;;;;;;;;6342186;27;20584;-76
2022/09/23 03:18:49;;;;;;;1.85;1.75;;;;;;;;;;6349389;27;20385;-77
2022/09/23 03:21:59;;;;;;;3.75;3.45;;;;;;;;;;6350301;27;20019;-77
2022/09/23 03:25:06;;;;;;;3.38;3.17;;;;;;;;;;6350704;27;20019;-77
2022/09/23 03:28:07;;;;;;;2.83;2.63;;;;;;;;;;6344361;27;20015;-77
2022/09/23 03:31:07;;;;;;;1.70;1.60;;;;;;;;;;6349590;27;20076;-77
2022/09/23 03:34:14;;;;;;;7.68;2.85;;;;;;;;;;6345118;27;20394;-76
2022/09/23 03:37:22;;;;;;;2.55;2.38;;;;;;;;;;6340992;27;20015;-76
2022/09/23 03:40:42;;;;;;;1.45;1.35;;;;;;;;;;6368750;27;20011;-76
2022/09/23 03:43:43;;;;;;;5.50;2.25;;;;;;;;;;6355624;27;20069;-77
2022/09/23 03:46:48;;;;;;;6.93;1.80;;;;;;;;;;6362202;27;20432;-77
2022/09/23 03:49:49;;;;;;;1.52;1.45;;;;;;;;;;6347341;27;20106;-77
2022/09/23 03:52:49;;;;;;;0.28;0.28;;;;;;;;;;6348976;27;20023;-77
2022/09/23 03:55:49;;;;;;;3.67;2.47;;;;;;;;;;6347695;27;20475;-77
2022/09/23 03:58:49;;;;;;;2.62;2.42;;;;;;;;;;6337675;27;20020;-77
2022/09/23 04:01:50;;;;;;;0.30;0.30;;;;;;;;;;6361560;27;20090;-77
2022/09/23 04:04:50;;;;;;;0.50;0.50;;;;;;;;;;6357263;27;20111;-77
2022/09/23 04:07:51;;;;;;;1.33;1.33;;;;;;;;;;6333850;27;20752;-77
2022/09/23 04:10:51;;;;;;;2.47;2.23;;;;;;;;;;6336428;27;20475;-76
2022/09/23 04:13:51;;;;;;;3.00;2.80;;;;;;;;;;6349147;27;20478;-77
2022/09/23 04:16:51;;;;;;;0.80;0.80;;;;;;;;;;6353777;27;20257;-77
2022/09/23 04:19:51;;;;;;;2.97;2.72;;;;;;;;;;6350614;27;20435;-77
2022/09/23 04:22:52;;;;;;;2.25;2.15;;;;;;;;;;6359360;27;20348;-77
2022/09/23 04:25:52;;;;;;;0.22;0.22;;;;;;;;;;6328551;27;20110;-76
2022/09/23 04:28:53;;;;;;;1.55;1.50;;;;;;;;;;6341468;27;20273;-77
2022/09/23 04:31:53;;;;;;;0.60;0.60;;;;;;;;;;6338705;27;20371;-76
2022/09/23 04:34:53;;;;;;;0.63;0.63;;;;;;;;;;6360152;27;20065;-77
2022/09/23 04:37:53;;;;;;;1.88;1.77;;;;;;;;;;6350641;27;20019;-77
2022/09/23 04:40:54;;;;;;;5.03;4.03;;;;;;;;;;6344647;27;20106;-77
2022/09/23 04:43:56;;;;;;;1.13;1.13;;;;;;;;;;6350036;27;20031;-77
2022/09/23 04:46:56;;;;;;;3.30;2.45;;;;;;;;;;6336783;27;20030;-77
2022/09/23 04:49:56;;;;;;;5.03;2.97;;;;;;;;;;6354486;27;20043;-76
2022/09/23 04:52:56;;;;;;;11.93;3.60;;;;;;;;;;6364150;27;20347;-76
2022/09/23 04:56:10;;;;;;;3.13;2.55;;;;;;;;;;6367392;27;20256;-76
2022/09/23 04:59:10;;;;;;;1.25;1.08;;;;;;;;;;6364845;27;20103;-76
2022/09/23 05:02:11;;;;;;;3.37;1.97;;;;;;;;;;6364877;27;20455;-77
2022/09/23 05:05:11;;;;;;;1.33;1.23;;;;;;;;;;6332726;27;20269;-77
2022/09/23 05:08:12;;;;;;;1.50;1.45;;;;;;;;;;6357693;27;20018;-77
2022/09/23 05:11:12;;;;;;;0.43;0.43;;;;;;;;;;6366402;27;20023;-77
2022/09/23 05:14:12;;;;;;;3.00;2.80;;;;;;;;;;6344590;27;20014;-76
2022/09/23 05:17:13;;;;;;;1.00;1.00;;;;;;;;;;6362861;27;20624;-76
2022/09/23 05:20:13;;;;;;;1.37;1.30;;;;;;;;;;6367044;27;20098;-76
2022/09/23 05:23:14;;;;;;;5.50;2.70;;;;;;;;;;6336507;27;20011;-76
2022/09/23 05:26:15;;;;;;;1.13;1.10;;;;;;;;;;6327628;28;20539;-76
2022/09/23 05:29:16;;;;;;;5.63;3.40;;;;;;;;;;6343103;27;20020;-76
2022/09/23 05:32:16;;;;;;;0.63;0.63;;;;;;;;;;6336652;27;20688;-77
2022/09/23 05:35:16;;;;;;;2.42;1.38;;;;;;;;;;6346845;27;20162;-77
2022/09/23 05:38:16;;;;;;;0.77;0.77;;;;;;;;;;6357909;27;20253;-77
2022/09/23 05:41:17;;;;;;;3.08;2.28;;;;;;;;;;6343104;27;20783;-77
2022/09/23 05:44:18;;;;;;;5.50;2.33;;;;;;;;;;6338759;27;20280;-77
2022/09/23 05:47:18;;;;;;;3.58;3.25;;;;;;;;;;6336157;27;20026;-77
2022/09/23 05:50:18;;;;;;;2.10;2.00;;;;;;;;;;6344538;28;20451;-76
2022/09/23 05:53:18;;;;;;;1.07;1.07;;;;;;;;;;6346723;28;20256;-77
2022/09/23 05:56:20;;;;;;;1.97;1.87;;;;;;;;;;6346893;28;20249;-77
2022/09/23 05:59:20;;;;;;;3.85;2.33;;;;;;;;;;6363402;28;20019;-76
2022/09/23 06:02:20;;;;;;;3.20;3.03;;;;;;;;;;6344314;28;20027;-76
2022/09/23 06:05:21;;;;;;;2.90;2.70;;;;;;;;;;6361829;28;20099;-77
2022/09/23 06:08:22;;;;;;;3.40;3.20;;;;;;;;;;6345466;28;20019;-76
2022/09/23 06:11:22;;;;;;;1.20;1.20;;;;;;;;;;6361879;28;20015;-76
2022/09/23 06:14:22;;;;;;;1.60;1.50;;;;;;;;;;6344465;28;20135;-76
2022/09/23 06:17:22;;;;;;;1.43;1.43;;;;;;;;;;6345844;28;20017;-76
2022/09/23 06:20:23;;;;;;;2.73;2.60;;;;;;;;;;6359483;28;20022;-76
2022/09/23 06:23:23;;;;;;;9.30;2.70;;;;;;;;;;6343702;28;20028;-76
2022/09/23 06:26:23;;;;;;;0.57;0.57;;;;;;;;;;6343453;28;20965;-76
2022/09/23 06:29:23;;;;;;;2.20;1.90;;;;;;;;;;6360419;28;20268;-76
2022/09/23 06:32:24;;;;;;;2.60;2.40;;;;;;;;;;6364601;28;20361;-76
2022/09/23 06:35:25;;;;;;;2.95;2.75;;;;;;;;;;6365610;28;20267;-76
2022/09/23 06:38:26;;;;;;;5.85;4.07;;;;;;;;;;6356191;28;20019;-76
2022/09/23 06:41:26;;;;;;;3.97;3.43;;;;;;;;;;6363738;28;20038;-76
2022/09/23 06:44:27;;;;;;;1.73;1.67;;;;;;;;;;6359984;28;20106;-76
2022/09/23 06:47:28;;;;;;;6.07;2.63;;;;;;;;;;6364260;28;20037;-75
2022/09/23 06:50:29;;;;;;;3.17;1.90;;;;;;;;;;6348227;28;20039;-76
2022/09/23 06:53:33;;;;;;;26.05;4.57;;;;;;;;;;6345924;28;20022;-76
2022/09/23 06:56:33;;;;;;;5.03;2.25;;;;;;;;;;6343995;28;20383;-76
2022/09/23 06:59:34;;;;;;;3.97;3.67;;;;;;;;;;6368587;27;20019;-76
2022/09/23 07:02:34;;;;;;;6.67;3.83;;;;;;;;;;6348326;27;20053;-76
2022/09/23 07:05:37;;;;;;;5.20;4.67;;;;;;;;;;6346615;27;20015;-75
2022/09/23 07:08:37;;;;;;;6.03;2.58;;;;;;;;;;6349648;27;20406;-75
2022/09/23 07:11:38;;;;;;;1.07;1.07;;;;;;;;;;6363439;27;20027;-75
2022/09/23 07:14:39;;;;;;;2.37;1.80;;;;;;;;;;6346533;27;20043;-76
2022/09/23 07:17:40;;;;;;;2.10;2.00;;;;;;;;;;6352807;27;20138;-77
2022/09/23 07:20:40;;;;;;;2.43;2.33;;;;;;;;;;6342755;28;20068;-76
2022/09/23 07:23:41;;;;;;;5.47;2.47;;;;;;;;;;6358213;27;20055;-76
2022/09/23 07:26:41;;;;;;;0.93;0.93;;;;;;;;;;6343367;27;20031;-76
2022/09/23 07:29:41;;;;;;;2.63;2.45;;;;;;;;;;6362102;27;20023;-75
2022/09/23 07:32:42;;;;;;;5.93;4.80;;;;;;;;;;6363630;27;20401;-76
2022/09/23 07:35:42;;;;;;;3.80;3.60;;;;;;;;;;6351910;27;20038;-76
2022/09/23 07:38:43;;;;;;;6.32;3.42;;;;;;;;;;6352244;27;20065;-76
2022/09/23 07:41:43;;;;;;;4.17;3.87;;;;;;;;;;6355712;27;20062;-76
2022/09/23 07:44:45;;;;;;;6.38;2.40;;;;;;;;;;6359262;27;20057;-76
2022/09/23 07:47:45;;;;;;;4.80;3.72;;;;;;;;;;6350073;27;20107;-76
2022/09/23 07:50:46;;;;;;;2.22;2.13;;;;;;;;;;6342913;27;20043;-76
2022/09/23 07:53:47;;;;;;;6.33;3.77;;;;;;;;;;6355869;27;20023;-76
2022/09/23 07:56:47;;;;;;;5.10;4.63;;;;;;;;;;6349615;27;20072;-76
2022/09/23 07:59:47;;;;;;;6.07;4.80;;;;;;;;;;6345400;27;20197;-76
2022/09/23 08:02:47;;;;;;;5.88;5.28;;;;;;;;;;6347495;27;20123;-76
2022/09/23 08:05:48;;;;;;;5.47;4.97;;;;;;;;;;6368463;27;20051;-76
2022/09/23 08:08:48;;;;;;;7.27;4.70;;;;;;;;;;6342515;27;20420;-76
2022/09/23 08:11:49;;;;;;;12.47;6.20;;;;;;;;;;6344481;27;20119;-77
2022/09/23 08:14:49;;;;;;;6.47;5.70;;;;;;;;;;6348678;27;20442;-77
2022/09/23 08:17:49;;;;;;;10.30;4.03;;;;;;;;;;6355988;27;20020;-77
2022/09/23 08:20:50;;;;;;;20.75;6.53;;;;;;;;;;6360668;27;20027;-77
2022/09/23 08:23:50;;;;;;;4.63;4.23;;;;;;;;;;6337345;27;20106;-77
2022/09/23 08:26:54;;;;;;;12.20;6.37;;;;;;;;;;6361302;27;20037;-78
2022/09/23 08:29:54;;;;;;;19.60;7.13;;;;;;;;;;6361118;27;20034;-77
2022/09/23 08:32:54;;;;;;;10.30;5.33;;;;;;;;;;6360607;27;20395;-78
2022/09/23 08:36:01;;;;;;;6.93;5.27;;;;;;;;;;6345494;27;20019;-78
2022/09/23 08:39:02;;;;;;;2.80;2.42;;;;;;;;;;6358726;27;20051;-78
2022/09/23 08:42:20;;;;;;;4.07;3.77;;;;;;;;;;6347941;27;20034;-78
2022/09/23 08:45:25;;;;;;;9.65;5.88;;;;;;;;;;6340970;27;20026;-76
2022/09/23 08:48:35;;;;;;;7.40;4.97;;;;;;;;;;6362013;27;20023;-76
2022/09/23 08:51:45;;;;;;;2.88;2.38;;;;;;;;;;6346296;27;20122;-76
2022/09/23 08:54:45;;;;;;;1.88;1.77;;;;;;;;;;6343686;27;20016;-77
2022/09/23 08:58:05;;;;;;;6.37;4.17;;;;;;;;;;6361453;27;20019;-78
2022/09/23 09:01:14;;;;;;;4.35;3.90;;;;;;;;;;6347471;27;20089;-78
2022/09/23 09:04:17;;;;;;;1.55;1.50;;;;;;;;;;6346997;27;20019;-78
2022/09/23 09:07:19;;;;;;;4.32;3.40;;;;;;;;;;6332634;27;20019;-78
2022/09/23 09:10:19;;;;;;;4.47;2.15;;;;;;;;;;6345036;27;20034;-78
2022/09/23 09:13:30;;;;;;;6.43;4.43;;;;;;;;;;6351750;27;20028;-76
2022/09/23 09:16:46;;;;;;;3.67;3.38;;;;;;;;;;6337076;27;20016;-76
2022/09/23 09:19:51;;;;;;;3.03;2.83;;;;;;;;;;6340958;27;20371;-77
2022/09/23 09:22:56;;;;;;;7.30;4.22;;;;;;;;;;6342642;27;20034;-78
2022/09/23 09:25:57;;;;;;;7.47;3.10;;;;;;;;;;6359438;27;20023;-76
2022/09/23 09:29:24;;;;;;;6.35;3.75;;;;;;;;;;6358704;27;20098;-75
2022/09/23 09:32:32;;;;;;;5.78;3.58;;;;;;;;;;6338864;27;20042;-76
2022/09/23 09:35:35;;;;;;;5.63;2.75;;;;;;;;;;6355064;27;20455;-76
2022/09/23 09:38:35;;;;;;;0.55;0.55;;;;;;;;;;6336893;27;20052;-76
2022/09/23 09:41:37;;;;;;;0.70;0.70;;;;;;;;;;6340642;27;20084;-76
2022/09/23 09:44:40;;;;;;;0.85;0.85;;;;;;;;;;6360170;27;20050;-78
2022/09/23 09:47:55;;;;;;;1.52;0.65;;;;;;;;;;6330890;28;20084;-78
2022/09/23 09:50:55;;;;;;;0.52;0.52;;;;;;;;;;6339143;27;20050;-76
2022/09/23 09:54:14;;;;;;;4.47;0.40;;;;;;;;;;6364766;28;20780;-76
2022/09/23 09:57:26;;;;;;;0.13;0.13;;;;;;;;;;6346451;28;20034;-76
2022/09/23 10:00:26;;;;;;;1.35;0.57;;;;;;;;;;6363185;28;20026;-76
2022/09/23 10:03:37;;;;;;;1.08;1.05;;;;;;;;;;6337856;28;20035;-76
2022/09/23 10:06:37;;;;;;;0.20;0.20;;;;;;;;;;6365026;28;20023;-76
2022/09/23 10:09:39;;;;;;;0.33;0.33;;;;;;;;;;6357472;28;20012;-76
2022/09/23 10:12:46;;;;;;;0.20;0.20;;;;;;;;;;6337868;28;20020;-76
2022/09/23 10:15:46;;;;;;;0.15;0.15;;;;;;;;;;6361504;28;20016;-76
2022/09/23 10:18:46;;;;;;;0.30;0.30;;;;;;;;;;6340613;28;20021;-76
2022/09/23 10:21:50;;;;;;;0.20;0.20;;;;;;;;;;6339435;28;20118;-76
2022/09/23 10:24:52;;;;;;;4.47;1.70;;;;;;;;;;6362513;28;20037;-77
2022/09/23 10:27:52;;;;;;;0.30;0.30;;;;;;;;;;6336212;28;20118;-76
2022/09/23 10:31:12;;;;;;;0.23;0.23;;;;;;;;;;6362597;28;20073;-76
2022/09/23 10:34:28;;;;;;;1.63;1.25;;;;;;;;;;6366923;27;20063;-76
2022/09/23 10:37:34;;;;;;;0.03;0.03;;;;;;;;;;6351599;27;20093;-76
2022/09/23 10:48:00;;;;;;;0.05;0.05;;;;;;;;;;6365661;27;20019;-76
2022/09/23 10:51:03;;;;;;;0.28;0.28;;;;;;;;;;6346546;27;20047;-77
2022/09/23 10:54:09;;;;;;;0.20;0.20;;;;;;;;;;6345590;27;20489;-77
2022/09/23 10:57:38;;;;;;;0.90;0.75;;;;;;;;;;6361183;27;20139;-77
2022/09/23 11:00:42;;;;;;;0.00;0.00;;;;;;;;;;6336697;27;20521;-77
2022/09/23 11:03:51;;;;;;;3.00;0.57;;;;;;;;;;6364951;27;20108;-76
2022/09/23 11:06:52;;;;;;;0.28;0.28;;;;;;;;;;6346746;28;20015;-76
2022/09/23 11:09:59;;;;;;;0.60;0.55;;;;;;;;;;6341586;27;20023;-76
2022/09/23 11:13:00;;;;;;;0.55;0.55;;;;;;;;;;6367804;27;20030;-77
2022/09/23 11:16:13;;;;;;;0.10;0.10;;;;;;;;;;6358590;27;20028;-76
2022/09/23 11:19:21;;;;;;;0.77;0.77;;;;;;;;;;6343932;27;20020;-77
2022/09/23 11:22:36;;;;;;;0.08;0.08;;;;;;;;;;6363373;27;20049;-77
2022/09/23 11:25:46;;;;;;;0.22;0.22;;;;;;;;;;6366963;27;20387;-77
2022/09/23 11:28:53;;;;;;;0.52;0.20;;;;;;;;;;6363406;27;20019;-76
2022/09/23 11:32:03;;;;;;;0.57;0.57;;;;;;;;;;6333775;28;20039;-76
2022/09/23 11:35:23;;;;;;;0.00;0.00;;;;;;;;;;6343715;27;20114;-76
2022/09/23 11:38:34;;;;;;;0.25;0.25;;;;;;;;;;6363171;27;20038;-77
2022/09/23 11:41:36;;;;;;;0.47;0.47;;;;;;;;;;6348098;27;20060;-78
2022/09/23 11:44:40;;;;;;;0.45;0.45;;;;;;;;;;6341470;28;20116;-77
2022/09/23 11:47:47;;;;;;;0.60;0.60;;;;;;;;;;6327316;27;20039;-77
2022/09/23 11:50:58;;;;;;;0.60;0.52;;;;;;;;;;6332780;27;20039;-77
2022/09/23 11:54:10;;;;;;;0.22;0.22;;;;;;;;;;6341989;27;20015;-77
2022/09/23 11:57:19;;;;;;;0.10;0.10;;;;;;;;;;6338435;27;20023;-77
2022/09/23 12:00:21;;;;;;;0.10;0.10;;;;;;;;;;6337340;27;20276;-77
2022/09/23 12:03:22;;;;;;;;;;;;;;;;;;6363631;27;20428;-75
2022/09/23 12:06:25;;;;;;;0.00;0.00;;;;;;;;;;6343777;27;19907;-77
2022/09/23 12:09:52;;;;;;;0.28;0.28;;;;;;;;;;6368497;27;20042;-77
2022/09/23 12:13:09;;;;;;;1.02;0.38;;;;;;;;;;6339059;27;20382;-77
2022/09/23 12:16:36;;;;;;;1.00;0.80;;;;;;;;;;6335811;27;20019;-78
2022/09/23 12:19:42;;;;;;;0.63;0.63;;;;;;;;;;6341458;27;20035;-77
2022/09/23 12:22:46;;;;;;;0.10;0.10;;;;;;;;;;6354288;27;20019;-78
2022/09/23 12:25:51;;;;;;;0.25;0.25;;;;;;;;;;6370114;27;20431;-78
2022/09/23 12:28:53;;;;;;;0.22;0.22;;;;;;;;;;6348266;27;20023;-77
2022/09/23 12:31:54;;;;;;;0.63;0.30;;;;;;;;;;6346299;27;20023;-75
2022/09/23 12:34:55;;;;;;;0.20;0.20;;;;;;;;;;6346254;27;20327;-76
2022/09/23 12:37:55;;;;;;;0.15;0.15;;;;;;;;;;6363814;27;20152;-77
2022/09/23 12:40:55;;;;;;;0.20;0.20;;;;;;;;;;6367872;27;20493;-78
2022/09/23 12:43:58;;;;;;;0.80;0.80;;;;;;;;;;6364169;27;20018;-78
2022/09/23 12:47:26;;;;;;;0.22;0.22;;;;;;;;;;6356407;27;20015;-78
2022/09/23 12:50:46;;;;;;;1.20;1.08;;;;;;;;;;6327066;27;20067;-78
2022/09/23 12:53:49;;;;;;;1.30;0.68;;;;;;;;;;6363179;27;20007;-78
2022/09/23 12:56:52;;;;;;;0.10;0.10;;;;;;;;;;6362815;27;20015;-78
2022/09/23 12:59:54;;;;;;;0.70;0.70;;;;;;;;;;6365674;27;20016;-78
2022/09/23 13:09:39;;;;;;;0.10;0.10;;;;;;;;;;6366300;27;20102;-78
2022/09/23 13:12:41;;;;;;;1.48;0.63;;;;;;;;;;6368638;27;20043;-76
2022/09/23 13:15:41;;;;;;;0.10;0.10;;;;;;;;;;6348898;27;20015;-77
2022/09/23 13:18:52;;;;;;;0.30;0.30;;;;;;;;;;6362753;27;20379;-77
2022/09/23 13:21:53;;;;;;;0.57;0.57;;;;;;;;;;6332689;28;20027;-77
2022/09/23 13:24:54;;;;;;;0.35;0.32;;;;;;;;;;6355962;27;20026;-78
2022/09/23 13:27:56;;;;;;;0.10;0.10;;;;;;;;;;6363171;27;20352;-78
2022/09/23 13:30:57;;;;;;;0.20;0.20;;;;;;;;;;6363123;27;20016;-78
2022/09/23 13:34:05;;;;;;;0.75;0.57;;;;;;;;;;6345083;27;20498;-78
2022/09/23 13:37:19;;;;;;;0.60;0.60;;;;;;;;;;6350668;27;20419;-78
2022/09/23 13:40:25;;;;;;;0.40;0.40;;;;;;;;;;6336949;27;20039;-78
2022/09/23 13:43:27;;;;;;;0.55;0.38;;;;;;;;;;6331509;27;20466;-78
2022/09/23 13:46:29;;;;;;;0.57;0.57;;;;;;;;;;6363417;27;20043;-78
2022/09/23 13:49:32;;;;;;;0.28;0.28;;;;;;;;;;6364166;27;20038;-77
2022/09/23 13:52:33;;;;;;;0.45;0.45;;;;;;;;;;6368265;27;20534;-77
2022/09/23 13:55:38;;;;;;;0.10;0.10;;;;;;;;;;6362767;28;20047;-78
2022/09/23 13:58:38;;;;;;;1.20;1.10;;;;;;;;;;6362110;28;20008;-78
2022/09/23 14:01:38;;;;;;;0.77;0.77;;;;;;;;;;6337828;28;20038;-78
2022/09/23 14:04:38;;;;;;;1.13;1.03;;;;;;;;;;6335642;28;20378;-78
2022/09/23 14:07:39;;;;;;;2.75;0.80;;;;;;;;;;6365199;27;20386;-77
2022/09/23 14:10:44;;;;;;;1.73;1.63;;;;;;;;;;6348355;27;20026;-77
2022/09/23 14:13:46;;;;;;;0.65;0.65;;;;;;;;;;6353027;27;20470;-78
2022/09/23 14:16:48;;;;;;;0.13;0.13;;;;;;;;;;6367844;27;20474;-78
2022/09/23 14:19:49;;;;;;;1.15;1.10;;;;;;;;;;6346468;27;20032;-77
2022/09/23 14:23:02;;;;;;;0.10;0.10;;;;;;;;;;6343078;27;20034;-78
2022/09/23 14:26:02;;;;;;;1.17;1.08;;;;;;;;;;6348957;27;20276;-78
2022/09/23 14:29:03;;;;;;;0.30;0.30;;;;;;;;;;6343223;27;20474;-78
2022/09/23 14:32:09;;;;;;;0.60;0.60;;;;;;;;;;6363530;27;20047;-78
2022/09/23 14:35:13;;;;;;;0.63;0.63;;;;;;;;;;6353977;27;20022;-78
2022/09/23 14:41:43;;;;;;;0.43;0.43;;;;;;;;;;6360214;27;20436;-77
2022/09/23 14:44:47;;;;;;;1.02;1.02;;;;;;;;;;6356650;27;20053;-78
2022/09/23 14:47:50;;;;;;;0.25;0.25;;;;;;;;;;6347395;27;20075;-78
2022/09/23 14:50:54;;;;;;;1.02;1.02;;;;;;;;;;6347605;27;20047;-77
2022/09/23 14:53:54;;;;;;;0.75;0.75;;;;;;;;;;6351926;27;20107;-77
2022/09/23 14:56:54;;;;;;;1.33;0.47;;;;;;;;;;6351474;27;20019;-77
2022/09/23 14:59:58;;;;;;;0.40;0.40;;;;;;;;;;6360084;27;20016;-78
2022/09/23 15:02:59;;;;;;;0.10;0.10;;;;;;;;;;6362488;27;20023;-78
2022/09/23 15:06:03;;;;;;;0.13;0.13;;;;;;;;;;6334919;27;20016;-78
2022/09/23 15:09:04;;;;;;;0.65;0.65;;;;;;;;;;6347311;27;20023;-77
2022/09/23 15:12:06;;;;;;;0.30;0.30;;;;;;;;;;6364603;27;20197;-77
2022/09/23 15:15:06;;;;;;;;;;;;;;;;;;6345126;27;20019;-78
2022/09/23 15:18:13;;;;;;;0.32;0.32;;;;;;;;;;6345096;27;19907;-77
2022/09/23 15:21:16;;;;;;;0.32;0.32;;;;;;;;;;6350799;27;20019;-78
2022/09/23 15:24:55;;;;;;;4.88;1.95;;;;;;;;;;6345362;27;20019;-78
2022/09/23 15:27:56;;;;;;;0.82;0.82;;;;;;;;;;6257869;28;20036;-77
2022/09/23 15:30:57;;;;;;;0.70;0.70;;;;;;;;;;6245578;28;20070;-77
2022/09/23 15:33:57;;;;;;;1.20;0.97;;;;;;;;;;6364609;27;20035;-78
2022/09/23 15:36:57;;;;;;;1.17;1.07;;;;;;;;;;6332291;27;20072;-78
2022/09/23 15:39:57;;;;;;;1.03;1.03;;;;;;;;;;6344725;27;20033;-78
2022/09/23 15:43:00;;;;;;;1.02;0.95;;;;;;;;;;6343934;27;20026;-78
2022/09/23 15:46:24;;;;;;;1.42;1.38;;;;;;;;;;6360226;27;20540;-78
2022/09/23 15:49:30;;;;;;;0.90;0.90;;;;;;;;;;6350369;27;20042;-78
2022/09/23 15:52:30;;;;;;;1.25;1.23;;;;;;;;;;6365082;27;20043;-77
2022/09/23 15:55:31;;;;;;;2.10;1.63;;;;;;;;;;6348502;27;20100;-78
2022/09/23 15:58:32;;;;;;;3.10;2.85;;;;;;;;;;6342281;27;20165;-77
2022/09/23 16:01:34;;;;;;;4.33;1.63;;;;;;;;;;6359526;27;20066;-77
2022/09/23 16:04:34;;;;;;;1.35;1.23;;;;;;;;;;6362864;27;20034;-77
2022/09/23 16:07:35;;;;;;;1.70;1.60;;;;;;;;;;6363103;27;20035;-78
2022/09/23 16:10:36;;;;;;;2.80;2.13;;;;;;;;;;6347003;27;20015;-78
2022/09/23 16:13:36;;;;;;;2.30;2.10;;;;;;;;;;6344451;27;20109;-78
2022/09/23 16:16:36;;;;;;;1.52;1.42;;;;;;;;;;6360628;27;20324;-78
2022/09/23 16:19:36;;;;;;;0.50;0.50;;;;;;;;;;6367817;27;20421;-78
2022/09/23 16:22:37;;;;;;;3.93;2.80;;;;;;;;;;6346061;27;20031;-78
2022/09/23 16:25:37;;;;;;;3.10;2.47;;;;;;;;;;6338098;27;20082;-78
2022/09/23 16:28:37;;;;;;;1.23;1.13;;;;;;;;;;6366923;27;20142;-78
2022/09/23 16:31:38;;;;;;;0.83;0.83;;;;;;;;;;6363906;27;20019;-78
2022/09/23 16:34:38;;;;;;;1.23;0.80;;;;;;;;;;6345239;27;20044;-78
2022/09/23 16:37:38;;;;;;;0.87;0.87;;;;;;;;;;6361640;27;20012;-78
2022/09/23 16:40:38;;;;;;;2.20;2.10;;;;;;;;;;6335695;27;20023;-78
2022/09/23 16:43:38;;;;;;;0.63;0.63;;;;;;;;;;6369137;27;20080;-77
2022/09/23 16:46:41;;;;;;;0.87;0.87;;;;;;;;;;6338529;27;20346;-77
2022/09/23 16:49:41;;;;;;;9.95;1.23;;;;;;;;;;6365466;27;20047;-77
2022/09/23 16:52:43;;;;;;;2.80;1.20;;;;;;;;;;6364317;27;20079;-78
2022/09/23 16:55:43;;;;;;;4.20;2.90;;;;;;;;;;6362220;27;20023;-77
2022/09/23 16:58:43;;;;;;;0.87;0.87;;;;;;;;;;6348009;27;20114;-77
2022/09/23 17:05:03;;;;;;;2.80;2.58;;;;;;;;;;6363139;27;20031;-76
2022/09/23 17:08:03;;;;;;;5.00;4.20;;;;;;;;;;6344356;27;20072;-78
2022/09/23 17:11:04;;;;;;;7.47;6.07;;;;;;;;;;6337425;27;20075;-78
2022/09/23 17:14:04;;;;;;;4.53;4.03;;;;;;;;;;6343289;27;20015;-77
2022/09/23 17:17:05;;;;;;;10.40;6.63;;;;;;;;;;6336140;28;20398;-77
2022/09/23 17:20:05;;;;;;;8.20;7.47;;;;;;;;;;6344657;27;20514;-77
2022/09/23 17:23:06;;;;;;;5.33;4.37;;;;;;;;;;6348523;27;20260;-76
2022/09/23 17:26:11;;;;;;;3.93;3.67;;;;;;;;;;6348583;27;20019;-77
2022/09/23 17:29:12;;;;;;;7.15;6.50;;;;;;;;;;6340813;27;20092;-77
2022/09/23 17:32:13;;;;;;;3.30;2.78;;;;;;;;;;6345458;27;20031;-78
2022/09/23 17:35:14;;;;;;;9.23;6.30;;;;;;;;;;6338284;28;20023;-77
2022/09/23 17:38:14;;;;;;;9.73;8.82;;;;;;;;;;6352131;27;20386;-78
2022/09/23 17:41:16;;;;;;;6.67;5.23;;;;;;;;;;6364561;27;20098;-78
2022/09/23 17:44:16;;;;;;;5.70;5.20;;;;;;;;;;6361194;27;20673;-77
2022/09/23 17:47:17;;;;;;;4.70;4.33;;;;;;;;;;6343083;27;20024;-78
2022/09/23 17:50:17;;;;;;;4.70;4.30;;;;;;;;;;6336713;27;20047;-78
2022/09/23 17:53:18;;;;;;;2.10;2.00;;;;;;;;;;6338370;27;20050;-78
2022/09/23 17:56:20;;;;;;;8.00;3.83;;;;;;;;;;6365742;28;20110;-78
2022/09/23 17:59:20;;;;;;;11.65;4.95;;;;;;;;;;6339484;28;20364;-78
2022/09/23 18:02:21;;;;;;;4.87;4.43;;;;;;;;;;6343992;28;20015;-78
2022/09/23 18:05:21;;;;;;;3.38;3.17;;;;;;;;;;6341808;28;20050;-77
2022/09/23 18:08:21;;;;;;;2.67;2.50;;;;;;;;;;6362179;28;20015;-77
2022/09/23 18:11:23;;;;;;;6.65;6.10;;;;;;;;;;6342656;28;20016;-78
2022/09/23 18:14:23;;;;;;;14.93;5.95;;;;;;;;;;6342335;28;20019;-77
2022/09/23 18:17:23;;;;;;;4.03;3.77;;;;;;;;;;6342259;28;20022;-77
2022/09/23 18:20:24;;;;;;;7.67;6.23;;;;;;;;;;6361916;28;20378;-78
2022/09/23 18:23:24;;;;;;;5.40;4.88;;;;;;;;;;6344305;28;20279;-77
2022/09/23 18:26:24;;;;;;;5.53;4.45;;;;;;;;;;6342785;28;20054;-78
2022/09/23 18:29:25;;;;;;;7.90;6.53;;;;;;;;;;6358250;28;20094;-78
2022/09/23 18:32:25;;;;;;;8.13;4.60;;;;;;;;;;6361463;28;20462;-78
2022/09/23 18:35:25;;;;;;;27.10;8.85;;;;;;;;;;6363159;28;20462;-78
2022/09/23 18:38:25;;;;;;;9.10;6.50;;;;;;;;;;6342439;28;20012;-78
2022/09/23 18:41:25;;;;;;;11.93;7.97;;;;;;;;;;6363943;28;20130;-78